Time;durP1;ratioP1;P1;durP2;ratioP2;P2;SDS_P1;SDS_P2;PMS_P1;PMS_P2;Temp;Humidity;BMP_temperature;BMP_pressure;BME280_temperature;BME280_humidity;BME280_pressure;Samples;Min_cycle;Max_cycle;Signal;HPM_P1;HPM_P2
2022/02/23 00:01:22;;;;;;;2.17;0.50;;;;;;;6.21;81.93;97839.31;5029802;28;21420;-61
2022/02/23 00:03:49;;;;;;;2.58;0.80;;;;;;;6.31;82.36;97852.31;5053504;28;20045;-61
2022/02/23 00:06:15;;;;;;;5.50;0.95;;;;;;;6.75;81.32;97852.56;5041754;28;20041;-61
2022/02/23 00:08:42;;;;;;;2.75;0.70;;;;;;;6.82;80.77;97863.28;5045042;28;20056;-61
2022/02/23 00:11:10;;;;;;;0.88;0.50;;;;;;;6.69;80.82;97856.09;5051460;28;20040;-62
2022/02/23 00:13:38;;;;;;;2.15;0.52;;;;;;;6.75;80.80;97866.81;5037212;28;20517;-62
2022/02/23 00:16:05;;;;;;;1.40;0.55;;;;;;;6.97;80.41;97869.19;5026566;28;20667;-62
2022/02/23 00:18:32;;;;;;;2.20;0.85;;;;;;;7.11;79.60;97869.94;5026742;28;20045;-61
2022/02/23 00:20:58;;;;;;;1.83;0.70;;;;;;;6.98;79.63;97873.56;5045565;28;20044;-62
2022/02/23 00:23:25;;;;;;;1.88;0.80;;;;;;;7.15;79.50;97873.84;5040045;28;20053;-62
2022/02/23 00:25:52;;;;;;;0.90;0.40;;;;;;;7.40;78.25;97856.88;5026303;28;20045;-62
2022/02/23 00:28:18;;;;;;;1.70;0.40;;;;;;;7.40;78.49;97872.22;5042348;28;20095;-62
2022/02/23 00:30:45;;;;;;;3.03;0.70;;;;;;;7.45;78.56;97876.97;5046514;28;20044;-62
2022/02/23 00:33:11;;;;;;;1.52;0.80;;;;;;;7.48;78.99;97884.63;5036683;28;20067;-61
2022/02/23 00:35:38;;;;;;;3.58;0.70;;;;;;;7.36;80.21;97890.69;5046747;28;20045;-62
2022/02/23 00:38:05;;;;;;;1.60;0.90;;;;;;;7.30;80.74;97888.88;5045705;28;20083;-62
2022/02/23 00:40:31;;;;;;;1.33;0.60;;;;;;;7.31;80.47;97885.16;5044431;28;20042;-62
2022/02/23 00:42:58;;;;;;;1.58;0.70;;;;;;;7.36;80.31;97884.47;5033009;28;20431;-61
2022/02/23 00:45:25;;;;;;;2.60;1.02;;;;;;;7.30;80.75;97888.88;5057528;28;20040;-61
2022/02/23 00:47:52;;;;;;;2.05;0.70;;;;;;;7.38;80.17;97899.38;5039050;28;20034;-62
2022/02/23 00:50:18;;;;;;;3.42;1.00;;;;;;;7.37;80.25;97892.34;5026044;28;20068;-62
2022/02/23 00:52:45;;;;;;;4.22;1.10;;;;;;;7.39;79.83;97898.34;5026770;28;20052;-61
2022/02/23 00:55:11;;;;;;;2.58;0.80;;;;;;;7.39;79.62;97902.91;5052763;28;20053;-61
2022/02/23 00:57:38;;;;;;;3.03;0.73;;;;;;;7.44;79.46;97903.06;5063492;28;20659;-61
2022/02/23 01:00:05;;;;;;;2.95;1.00;;;;;;;7.39;79.96;97902.91;5037380;28;20060;-61
2022/02/23 01:02:32;;;;;;;3.13;0.90;;;;;;;7.38;79.91;97904.75;5036840;28;20045;-61
2022/02/23 01:04:59;;;;;;;4.03;0.95;;;;;;;7.34;80.71;97908.94;5025991;28;20048;-61
2022/02/23 01:07:25;;;;;;;2.03;0.90;;;;;;;7.30;80.88;97907.75;5042089;28;20046;-61
2022/02/23 01:09:54;;;;;;;1.15;0.60;;;;;;;7.30;81.32;97918.53;5044047;28;20107;-61
2022/02/23 01:12:21;;;;;;;4.13;0.82;;;;;;;7.35;81.48;97925.94;5043850;28;20041;-62
2022/02/23 01:14:48;;;;;;;3.58;0.68;;;;;;;7.22;82.03;97927.66;5025936;28;20046;-62
2022/02/23 01:17:14;;;;;;;1.52;0.88;;;;;;;7.13;82.53;97937.88;5037296;28;20060;-62
2022/02/23 01:19:41;;;;;;;3.20;0.90;;;;;;;7.14;82.60;97939.53;5044565;28;20152;-61
2022/02/23 01:22:07;;;;;;;1.38;0.70;;;;;;;7.15;82.76;97941.16;5044441;28;20405;-61
2022/02/23 01:24:34;;;;;;;3.45;1.02;;;;;;;7.20;82.23;97937.84;5032448;28;20753;-61
2022/02/23 01:27:00;;;;;;;2.55;1.13;;;;;;;7.21;81.91;97944.88;5025342;28;20042;-62
2022/02/23 01:29:27;;;;;;;4.05;1.27;;;;;;;7.15;82.14;97933.09;5025472;28;20042;-62
2022/02/23 01:31:53;;;;;;;2.40;1.10;;;;;;;7.10;82.06;97945.53;5031821;28;20108;-61
2022/02/23 01:34:20;;;;;;;2.47;0.88;;;;;;;7.05;82.40;97942.69;5030175;28;20045;-62
2022/02/23 01:36:47;;;;;;;2.58;0.90;;;;;;;7.06;82.20;97955.94;5041609;28;20417;-61
2022/02/23 01:39:13;;;;;;;2.65;0.90;;;;;;;7.12;82.25;97956.94;5045149;28;20565;-62
2022/02/23 01:41:40;;;;;;;4.22;1.23;;;;;;;7.06;82.87;97976.63;5049773;28;20041;-62
2022/02/23 01:44:07;;;;;;;6.15;1.35;;;;;;;6.98;83.17;98015.41;5042182;28;20037;-61
2022/02/23 01:46:34;;;;;;;3.88;0.73;;;;;;;6.32;77.83;98044.94;5043324;28;20041;-61
2022/02/23 01:49:00;;;;;;;3.20;0.60;;;;;;;5.17;79.84;98055.44;5044612;28;20099;-61
2022/02/23 01:51:28;;;;;;;5.53;1.35;;;;;;;4.36;83.62;98060.31;5033213;28;20045;-61
2022/02/23 01:53:55;;;;;;;5.55;0.73;;;;;;;3.86;85.11;98066.50;5035939;28;20241;-61
2022/02/23 01:56:21;;;;;;;2.80;0.60;;;;;;;3.64;85.64;98098.63;5027758;28;20041;-61
2022/02/23 01:58:48;;;;;;;3.13;0.85;;;;;;;3.71;87.37;98088.81;5041633;28;20052;-62
2022/02/23 02:01:14;;;;;;;2.30;0.85;;;;;;;3.62;87.23;98100.66;5027009;28;20674;-62
2022/02/23 02:03:41;;;;;;;5.68;0.95;;;;;;;3.56;88.21;98098.72;5045193;28;20073;-62
2022/02/23 02:06:08;;;;;;;4.85;0.90;;;;;;;3.51;87.50;98110.84;5045477;28;20040;-62
2022/02/23 02:08:35;;;;;;;4.70;0.60;;;;;;;3.49;87.68;98109.38;5047302;28;20520;-61
2022/02/23 02:11:02;;;;;;;6.70;1.20;;;;;;;3.50;88.03;98121.72;5034976;28;20064;-62
2022/02/23 02:13:29;;;;;;;4.50;0.90;;;;;;;3.47;87.56;98112.22;5039158;28;20052;-61
2022/02/23 02:15:55;;;;;;;3.95;0.85;;;;;;;3.49;87.99;98107.53;5049135;28;20389;-62
2022/02/23 02:18:22;;;;;;;4.43;0.90;;;;;;;3.56;88.15;98104.09;5048956;28;20048;-61
2022/02/23 02:20:48;;;;;;;5.57;0.80;;;;;;;3.40;87.33;98111.34;5042047;28;20504;-62
2022/02/23 02:23:15;;;;;;;2.65;0.82;;;;;;;3.30;88.41;98126.84;5041152;28;20076;-61
2022/02/23 02:25:42;;;;;;;4.72;0.75;;;;;;;3.42;89.04;98124.53;5048317;28;20045;-61
2022/02/23 02:28:09;;;;;;;8.18;1.33;;;;;;;3.30;88.86;98126.84;5040637;28;20025;-61
2022/02/23 02:30:36;;;;;;;7.13;1.20;;;;;;;3.29;88.06;98134.06;5047291;28;20040;-62
2022/02/23 02:33:03;;;;;;;6.57;1.05;;;;;;;3.37;88.00;98131.28;5044610;28;20145;-61
2022/02/23 02:35:33;;;;;;;6.50;0.68;;;;;;;3.47;86.94;98138.19;5038374;28;20041;-61
2022/02/23 02:38:00;;;;;;;3.47;1.00;;;;;;;3.51;86.99;98134.13;5037405;28;20100;-61
2022/02/23 02:40:27;;;;;;;3.70;0.98;;;;;;;3.61;85.74;98133.84;5030467;28;20280;-61
2022/02/23 02:42:54;;;;;;;7.65;1.45;;;;;;;3.58;85.54;98145.72;5048220;28;20052;-60
2022/02/23 02:45:23;;;;;;;3.92;1.10;;;;;;;3.58;86.29;98152.94;5033585;28;20088;-61
2022/02/23 02:47:49;;;;;;;5.78;1.38;;;;;;;3.64;86.63;98168.25;5047797;28;20120;-61
2022/02/23 02:50:16;;;;;;;4.93;0.88;;;;;;;3.70;87.41;98156.81;5048126;28;20044;-61
2022/02/23 02:52:42;;;;;;;4.70;1.27;;;;;;;3.72;86.04;98164.66;5040293;28;20539;-61
2022/02/23 02:55:09;;;;;;;5.93;1.02;;;;;;;3.75;85.63;98164.25;5028449;28;20042;-62
2022/02/23 02:57:38;;;;;;;5.80;1.30;;;;;;;3.84;83.91;98160.44;5045584;28;20049;-61
2022/02/23 03:00:07;;;;;;;9.50;1.38;;;;;;;3.77;86.01;98167.59;5048412;28;20424;-62
2022/02/23 03:02:34;;;;;;;7.63;0.88;;;;;;;3.78;85.99;98174.59;5039438;28;20114;-61
2022/02/23 03:05:02;;;;;;;4.72;0.90;;;;;;;3.69;85.92;98167.72;5044056;28;20056;-62
2022/02/23 03:07:28;;;;;;;3.85;1.05;;;;;;;3.56;87.36;98157.66;5038166;28;20516;-61
2022/02/23 03:09:55;;;;;;;3.50;0.93;;;;;;;3.66;86.44;98163.56;5044138;28;20041;-61
2022/02/23 03:12:22;;;;;;;5.38;1.02;;;;;;;3.64;86.10;98168.25;5045495;28;20083;-61
2022/02/23 03:14:48;;;;;;;4.93;1.23;;;;;;;3.52;86.15;98159.88;5026577;28;20059;-61
2022/02/23 03:17:15;;;;;;;4.93;1.13;;;;;;;3.43;87.13;98164.50;5026952;28;20049;-61
2022/02/23 03:19:41;;;;;;;7.10;1.10;;;;;;;3.40;87.55;98164.88;5040549;28;20040;-61
2022/02/23 03:22:08;;;;;;;8.35;1.25;;;;;;;3.49;87.62;98165.59;5047373;28;20535;-61
2022/02/23 03:24:35;;;;;;;7.85;1.10;;;;;;;3.47;87.06;98164.97;5046669;28;20115;-61
2022/02/23 03:27:01;;;;;;;5.10;1.15;;;;;;;3.32;87.04;98167.66;5034637;28;20100;-61
2022/02/23 03:29:28;;;;;;;4.78;0.90;;;;;;;3.20;87.19;98168.09;5035805;28;20045;-61
2022/02/23 03:31:54;;;;;;;7.22;1.10;;;;;;;2.99;88.08;98180.38;5042487;28;20479;-61
2022/02/23 03:34:21;;;;;;;3.63;1.05;;;;;;;2.87;89.62;98184.50;5037895;28;20036;-61
2022/02/23 03:36:47;;;;;;;5.50;1.35;;;;;;;2.78;89.92;98186.44;5044535;28;20040;-61
2022/02/23 03:39:14;;;;;;;3.17;0.95;;;;;;;2.44;89.82;98198.41;5046846;28;20067;-61
2022/02/23 03:41:40;;;;;;;5.00;1.38;;;;;;;2.42;91.82;98200.44;5049868;28;20036;-61
2022/02/23 03:44:07;;;;;;;9.43;1.30;;;;;;;2.58;92.41;98205.66;5040034;28;20033;-61
2022/02/23 03:46:36;;;;;;;6.40;1.33;;;;;;;2.37;90.55;98205.47;5046245;28;20049;-61
2022/02/23 03:49:03;;;;;;;7.65;1.25;;;;;;;2.21;91.26;98217.94;5044755;28;20447;-61
2022/02/23 03:51:29;;;;;;;7.15;1.45;;;;;;;2.01;91.94;98212.22;5039598;28;20045;-61
2022/02/23 03:53:56;;;;;;;6.80;2.08;;;;;;;2.12;93.30;98213.66;5039664;28;20045;-61
2022/02/23 03:56:38;;;;;;;4.85;1.00;;;;;;;2.15;93.61;98216.81;5027212;28;20095;-61
2022/02/23 03:59:11;;;;;;;3.10;1.17;;;;;;;2.28;93.48;98218.91;5026897;28;20531;-61
2022/02/23 04:01:48;;;;;;;4.38;1.10;;;;;;;2.38;93.34;98224.03;5030133;28;20048;-61
2022/02/23 04:04:16;;;;;;;6.30;1.92;;;;;;;2.54;93.21;98227.59;5046922;28;20052;-61
2022/02/23 04:06:44;;;;;;;4.25;1.65;;;;;;;2.66;92.56;98228.84;5047619;28;20063;-61
2022/02/23 04:09:11;;;;;;;7.35;1.88;;;;;;;2.75;92.10;98237.59;5064409;28;20037;-61
2022/02/23 04:11:38;;;;;;;4.03;1.50;;;;;;;2.88;91.22;98247.72;5061845;28;20195;-61
2022/02/23 04:14:05;;;;;;;4.68;1.80;;;;;;;2.81;91.20;98252.09;5037910;28;20052;-61
2022/02/23 04:16:33;;;;;;;8.00;1.98;;;;;;;2.85;91.83;98259.56;5025690;28;20041;-61
2022/02/23 04:19:01;;;;;;;9.43;1.98;;;;;;;3.03;92.74;98262.94;5026447;28;20545;-61
2022/02/23 04:21:28;;;;;;;8.43;1.65;;;;;;;3.16;93.09;98270.38;5026246;28;20049;-61
2022/02/23 04:23:54;;;;;;;9.18;1.88;;;;;;;3.11;92.45;98269.06;5026642;28;20041;-61
2022/02/23 04:26:21;;;;;;;7.40;2.03;;;;;;;3.02;91.05;98272.00;5025192;28;20124;-61
2022/02/23 04:28:48;;;;;;;7.95;1.65;;;;;;;3.08;92.53;98280.13;5026323;28;20107;-61
2022/02/23 04:31:20;;;;;;;10.07;1.35;;;;;;;3.01;91.80;98289.03;5028040;28;20589;-61
2022/02/23 04:33:49;;;;;;;10.65;2.30;;;;;;;3.00;92.05;98293.59;5046022;28;20535;-61
2022/02/23 04:36:16;;;;;;;7.55;1.88;;;;;;;2.94;91.70;98289.78;5037086;28;20238;-61
2022/02/23 04:38:42;;;;;;;8.88;2.10;;;;;;;2.95;91.82;98298.66;5044943;28;20534;-61
2022/02/23 04:41:09;;;;;;;5.57;1.48;;;;;;;2.78;91.13;98285.41;5049053;28;20503;-61
2022/02/23 04:43:36;;;;;;;6.30;2.05;;;;;;;2.61;91.66;98300.72;5054246;28;20041;-61
2022/02/23 04:46:10;;;;;;;3.45;1.67;;;;;;;2.56;92.95;98300.41;5045574;28;20056;-62
2022/02/23 04:48:39;;;;;;;9.38;2.13;;;;;;;2.67;94.12;98307.19;5037611;28;20048;-61
2022/02/23 04:51:06;;;;;;;5.22;2.17;;;;;;;2.52;92.81;98307.13;5039375;28;20041;-61
2022/02/23 04:53:33;;;;;;;7.38;2.15;;;;;;;2.45;92.29;98309.69;5045980;28;20049;-61
2022/02/23 04:55:59;;;;;;;6.55;2.28;;;;;;;2.50;93.30;98309.97;5027100;28;20045;-61
2022/02/23 04:58:27;;;;;;;8.20;2.60;;;;;;;2.46;92.42;98316.69;5042589;28;20538;-61
2022/02/23 05:00:56;;;;;;;7.05;2.20;;;;;;;2.40;93.12;98314.72;5045416;28;20119;-61
2022/02/23 05:03:23;;;;;;;9.65;4.20;;;;;;;2.28;92.20;98317.78;5030697;28;20141;-61
2022/02/23 05:05:50;;;;;;;13.82;3.65;;;;;;;1.84;92.07;98316.47;5039787;28;20049;-61
2022/02/23 05:08:17;;;;;;;9.82;2.28;;;;;;;1.58;92.79;98314.88;5065848;28;20045;-61
2022/02/23 05:10:44;;;;;;;11.77;2.22;;;;;;;1.76;93.09;98320.00;5054755;28;20103;-61
2022/02/23 05:13:13;;;;;;;6.70;2.00;;;;;;;1.81;93.59;98314.16;5037885;28;20417;-61
2022/02/23 05:15:40;;;;;;;4.65;1.85;;;;;;;1.72;93.63;98317.84;5027896;28;20045;-61
2022/02/23 05:18:08;;;;;;;7.35;2.55;;;;;;;1.71;94.36;98317.00;5044985;28;20563;-61
2022/02/23 05:20:35;;;;;;;13.02;3.00;;;;;;;1.64;94.38;98313.34;5031513;28;20076;-61
2022/02/23 05:23:03;;;;;;;12.05;2.63;;;;;;;1.71;94.12;98327.69;5025929;28;20574;-61
2022/02/23 05:25:30;;;;;;;8.07;2.80;;;;;;;1.65;93.99;98331.88;5037769;28;20049;-61
2022/02/23 05:27:56;;;;;;;8.57;2.92;;;;;;;1.68;93.75;98331.53;5046028;28;20083;-61
2022/02/23 05:30:23;;;;;;;5.43;2.30;;;;;;;1.75;93.65;98333.53;5034325;28;20533;-61
2022/02/23 05:32:49;;;;;;;9.23;2.00;;;;;;;1.77;93.16;98334.19;5028071;28;20049;-61
2022/02/23 05:35:16;;;;;;;12.02;2.75;;;;;;;1.46;92.63;98332.22;5025749;28;20049;-65
2022/02/23 05:37:43;;;;;;;6.47;2.40;;;;;;;1.18;93.31;98336.09;5055010;28;20036;-66
2022/02/23 05:40:10;;;;;;;8.98;2.47;;;;;;;1.17;93.53;98337.09;5047640;28;20092;-66
2022/02/23 05:42:36;;;;;;;3.50;1.58;;;;;;;1.18;94.05;98344.09;5033913;28;20033;-65
2022/02/23 05:45:03;;;;;;;6.63;2.50;;;;;;;1.25;93.93;98346.97;5047878;28;20508;-65
2022/02/23 05:47:30;;;;;;;6.30;2.45;;;;;;;1.25;93.91;98354.97;5046647;28;20041;-66
2022/02/23 05:49:57;;;;;;;6.30;3.05;;;;;;;1.32;93.77;98363.94;5045365;28;20049;-66
2022/02/23 05:52:24;;;;;;;8.20;2.53;;;;;;;1.26;93.51;98364.63;5042659;28;20044;-65
2022/02/23 05:54:51;;;;;;;5.47;2.20;;;;;;;1.29;94.56;98374.97;5047299;28;20041;-65
2022/02/23 05:57:18;;;;;;;7.80;2.05;;;;;;;1.33;93.61;98376.31;5040364;28;20040;-66
2022/02/23 05:59:47;;;;;;;6.30;3.53;;;;;;;1.29;93.51;98374.97;5046719;28;20114;-66
2022/02/23 06:02:13;;;;;;;7.18;2.75;;;;;;;1.15;93.54;98381.81;5038037;28;20057;-66
2022/02/23 06:04:40;;;;;;;10.50;2.47;;;;;;;1.13;93.80;98384.63;5047260;28;20511;-66
2022/02/23 06:07:07;;;;;;;7.72;3.45;;;;;;;1.25;93.88;98389.66;5060714;28;20049;-66
2022/02/23 06:09:34;;;;;;;12.57;2.95;;;;;;;1.16;93.70;98392.31;5066458;28;20044;-66
2022/02/23 06:12:02;;;;;;;8.02;3.42;;;;;;;1.15;94.22;98392.47;5067326;28;20075;-66
2022/02/23 06:14:30;;;;;;;10.60;3.70;;;;;;;1.07;94.21;98390.63;5058046;28;20106;-65
2022/02/23 06:16:56;;;;;;;8.20;4.03;;;;;;;1.10;93.98;98387.63;5058818;28;20044;-66
2022/02/23 06:19:23;;;;;;;7.90;3.35;;;;;;;0.98;93.72;98388.94;5032288;28;20663;-66
2022/02/23 06:21:49;;;;;;;10.70;3.55;;;;;;;0.90;93.65;98395.97;5045146;28;20049;-66
2022/02/23 06:24:19;;;;;;;8.65;3.00;;;;;;;0.92;93.56;98402.94;5042028;28;20038;-66
2022/02/23 06:26:45;;;;;;;5.38;3.00;;;;;;;0.89;94.26;98409.44;5034165;28;20049;-66
2022/02/23 06:29:12;;;;;;;6.63;2.85;;;;;;;0.87;93.99;98411.44;5043844;28;20389;-66
2022/02/23 06:31:39;;;;;;;8.75;3.00;;;;;;;0.92;94.36;98419.75;5054717;28;20249;-66
2022/02/23 06:34:05;;;;;;;7.63;2.70;;;;;;;1.07;94.96;98419.97;5062197;28;20051;-66
2022/02/23 06:36:32;;;;;;;6.53;2.58;;;;;;;1.04;94.19;98428.31;5054079;28;20037;-66
2022/02/23 06:38:59;;;;;;;10.88;3.45;;;;;;;1.02;94.57;98420.47;5036358;28;20045;-66
2022/02/23 06:41:26;;;;;;;11.57;3.53;;;;;;;1.01;94.62;98423.28;5044440;28;20044;-65
2022/02/23 06:43:53;;;;;;;7.80;3.25;;;;;;;1.00;93.77;98434.97;5046129;28;20037;-65
2022/02/23 06:46:21;;;;;;;9.32;4.22;;;;;;;1.01;93.59;98432.16;5043571;28;20041;-65
2022/02/23 06:48:49;;;;;;;12.95;3.88;;;;;;;1.14;93.48;98442.31;5039739;28;20102;-66
2022/02/23 06:51:19;;;;;;;8.60;3.88;;;;;;;1.11;92.86;98447.16;5049666;28;20048;-65
2022/02/23 06:53:49;;;;;;;9.20;3.95;;;;;;;1.03;92.91;98448.81;5044743;28;20052;-65
2022/02/23 06:56:17;;;;;;;10.30;3.28;;;;;;;1.09;93.10;98441.97;5045513;28;20792;-66
2022/02/23 06:58:50;;;;;;;10.00;4.13;;;;;;;1.18;92.90;98442.81;5044627;28;20045;-65
2022/02/23 07:01:19;;;;;;;7.95;3.05;;;;;;;1.28;92.51;98450.66;5053630;28;20044;-66
2022/02/23 07:03:48;;;;;;;6.13;2.88;;;;;;;1.36;92.89;98456.00;5047977;28;20138;-66
2022/02/23 07:06:15;;;;;;;6.32;2.92;;;;;;;1.33;93.07;98458.19;5052165;28;20735;-66
2022/02/23 07:08:46;;;;;;;9.63;3.67;;;;;;;1.38;93.02;98455.84;5065685;28;20047;-65
2022/02/23 07:11:13;;;;;;;9.55;3.42;;;;;;;1.46;92.92;98457.69;5048590;28;20562;-65
2022/02/23 07:13:41;;;;;;;6.60;2.83;;;;;;;1.60;93.54;98470.38;5046271;28;20053;-65
2022/02/23 07:16:07;;;;;;;5.38;2.40;;;;;;;1.89;93.02;98466.38;5046543;28;20508;-65
2022/02/23 07:18:34;;;;;;;6.13;3.00;;;;;;;2.06;92.13;98475.19;5058420;28;20060;-65
2022/02/23 07:21:00;;;;;;;7.35;2.40;;;;;;;2.17;91.98;98471.31;5045605;28;20064;-66
2022/02/23 07:23:27;;;;;;;5.40;2.50;;;;;;;2.21;91.92;98478.00;5043174;28;20119;-67
2022/02/23 07:25:56;;;;;;;7.00;2.35;;;;;;;2.31;92.12;98480.47;5045531;28;20052;-65
2022/02/23 07:28:24;;;;;;;4.78;2.20;;;;;;;2.47;92.20;98482.25;5045764;28;20041;-66
2022/02/23 07:31:09;;;;;;;7.45;2.60;;;;;;;2.57;91.80;98476.72;5057509;28;20048;-65
2022/02/23 07:33:37;;;;;;;8.60;3.25;;;;;;;2.68;92.26;98488.03;5064606;28;20044;-66
2022/02/23 07:36:05;;;;;;;9.25;2.90;;;;;;;2.79;91.90;98489.50;5065046;28;20077;-65
2022/02/23 07:38:32;;;;;;;7.50;3.25;;;;;;;2.92;91.81;98489.78;5065152;28;20048;-66
2022/02/23 07:40:58;;;;;;;11.73;3.65;;;;;;;2.94;91.66;98492.25;5047313;28;20806;-65
2022/02/23 07:43:45;;;;;;;6.15;2.55;;;;;;;3.03;90.78;98490.41;5029210;28;20540;-66
2022/02/23 07:46:12;;;;;;;10.73;3.13;;;;;;;3.12;90.73;98503.56;5036134;28;20068;-66
2022/02/23 07:48:41;;;;;;;9.32;3.22;;;;;;;3.22;90.67;98499.81;5042299;28;20041;-65
2022/02/23 07:51:08;;;;;;;12.38;4.22;;;;;;;3.30;90.49;98499.78;5047256;28;20049;-66
2022/02/23 07:53:34;;;;;;;15.20;6.13;;;;;;;3.41;91.13;98503.88;5045804;28;20496;-66
2022/02/23 07:56:01;;;;;;;17.13;7.60;;;;;;;3.57;90.17;98510.16;5030377;28;20045;-66
2022/02/23 07:58:28;;;;;;;26.52;12.48;;;;;;;3.54;90.12;98499.78;5050926;28;20037;-66
2022/02/23 08:00:56;;;;;;;10.95;3.83;;;;;;;3.66;90.38;98510.91;5045789;28;20059;-66
2022/02/23 08:03:26;;;;;;;9.30;4.45;;;;;;;3.73;89.67;98511.88;5043675;28;20116;-66
2022/02/23 08:05:54;;;;;;;13.93;7.28;;;;;;;3.70;89.77;98512.22;5036290;28;20044;-66
2022/02/23 08:08:22;;;;;;;8.82;3.05;;;;;;;3.68;89.24;98509.72;5048831;28;20045;-66
2022/02/23 08:10:49;;;;;;;8.70;2.33;;;;;;;3.82;88.70;98512.63;5045932;28;20052;-66
2022/02/23 08:13:15;;;;;;;4.10;2.13;;;;;;;3.93;87.86;98506.84;5050569;28;20665;-66
2022/02/23 08:21:14;;;;;;;12.13;4.05;;;;;;;4.15;88.55;98512.34;5044174;28;20045;-66
2022/02/23 08:23:43;;;;;;;7.10;3.10;;;;;;;4.29;88.58;98514.22;5038648;28;20049;-66
2022/02/23 08:26:12;;;;;;;13.60;5.50;;;;;;;4.43;88.99;98515.25;5050722;28;20082;-66
2022/02/23 08:28:38;;;;;;;19.17;8.27;;;;;;;4.43;87.76;98509.88;5064466;28;20389;-65
2022/02/23 08:31:06;;;;;;;8.35;2.83;;;;;;;4.38;87.49;98508.75;5042098;28;20056;-67
2022/02/23 08:33:33;;;;;;;10.70;4.43;;;;;;;4.51;87.29;98506.28;5045092;28;20040;-67
2022/02/23 08:35:59;;;;;;;7.72;3.20;;;;;;;4.58;86.94;98494.81;5035654;28;20250;-66
2022/02/23 08:38:26;;;;;;;11.18;3.33;;;;;;;4.63;87.08;98492.41;5044968;28;20102;-66
2022/02/23 08:40:53;;;;;;;4.75;1.77;;;;;;;4.72;86.26;98499.31;5064280;28;20045;-66
2022/02/23 08:43:20;;;;;;;10.73;3.00;;;;;;;4.77;85.70;98496.09;5064390;28;20067;-66
2022/02/23 08:45:47;;;;;;;18.30;8.93;;;;;;;4.92;85.47;98496.09;5043723;28;20061;-67
2022/02/23 08:48:14;;;;;;;4.75;1.95;;;;;;;5.00;85.24;98493.28;5050058;28;20041;-66
2022/02/23 08:50:40;;;;;;;15.10;5.95;;;;;;;5.11;84.48;98499.19;5063923;28;20672;-67
2022/02/23 08:53:07;;;;;;;8.80;3.30;;;;;;;5.24;84.85;98507.41;5064169;28;20071;-66
2022/02/23 08:55:34;;;;;;;21.55;6.20;;;;;;;5.25;84.36;98514.44;5063766;28;20517;-66
2022/02/23 08:58:01;;;;;;;16.35;4.90;;;;;;;5.26;84.14;98513.41;5061003;28;20052;-66
2022/02/23 09:00:29;;;;;;;9.82;3.75;;;;;;;5.24;83.10;98509.25;5057375;28;20550;-66
2022/02/23 09:02:56;;;;;;;10.00;3.92;;;;;;;5.20;83.20;98516.88;5055521;28;20045;-66
2022/02/23 09:05:23;;;;;;;5.38;2.10;;;;;;;5.27;83.18;98498.97;5058421;28;20564;-66
2022/02/23 09:07:49;;;;;;;9.70;3.30;;;;;;;5.32;83.82;98503.78;5050579;28;20041;-66
2022/02/23 09:10:16;;;;;;;20.15;7.53;;;;;;;5.40;82.63;98500.13;5064004;28;20664;-66
2022/02/23 09:12:43;;;;;;;8.10;2.95;;;;;;;5.46;83.06;98502.88;5064176;28;20066;-67
2022/02/23 09:15:12;;;;;;;13.75;4.03;;;;;;;5.54;81.74;98503.78;5063073;28;20052;-68
2022/02/23 09:17:40;;;;;;;11.95;3.55;;;;;;;5.58;81.65;98491.63;5061025;28;20044;-67
2022/02/23 09:20:07;;;;;;;10.88;4.32;;;;;;;5.68;81.40;98489.44;5054009;28;20045;-67
2022/02/23 09:22:34;;;;;;;7.88;2.72;;;;;;;5.73;80.73;98494.25;5063765;28;20105;-66
2022/02/23 09:25:05;;;;;;;5.75;3.00;;;;;;;5.76;80.58;98493.03;5063583;28;20135;-67
2022/02/23 09:27:34;;;;;;;15.05;6.15;;;;;;;5.88;80.57;98496.88;5062933;28;20052;-66
2022/02/23 09:30:02;;;;;;;8.52;2.47;;;;;;;5.98;79.21;98493.84;5063286;28;20054;-67
2022/02/23 09:32:28;;;;;;;5.45;1.60;;;;;;;6.07;78.53;98499.94;5057072;28;20051;-67
2022/02/23 09:34:55;;;;;;;6.18;2.15;;;;;;;6.24;79.05;98500.50;5043331;28;20123;-67
2022/02/23 09:37:21;;;;;;;11.48;3.75;;;;;;;6.41;79.01;98503.69;5048148;28;20041;-66
2022/02/23 09:39:48;;;;;;;4.65;1.40;;;;;;;6.53;77.60;98504.00;5046536;28;20109;-67
2022/02/23 09:42:15;;;;;;;6.05;2.28;;;;;;;6.63;77.00;98500.94;5044548;28;20617;-67
2022/02/23 09:44:43;;;;;;;5.22;1.48;;;;;;;6.61;75.24;98503.00;5042387;28;20060;-66
2022/02/23 09:47:32;;;;;;;5.72;1.95;;;;;;;6.71;75.31;98491.88;5038826;28;20037;-67
2022/02/23 09:49:59;;;;;;;5.07;1.73;;;;;;;6.82;75.18;98496.69;5039181;28;20045;-66
2022/02/23 09:52:26;;;;;;;7.15;1.45;;;;;;;6.74;73.14;98495.00;5054014;28;20045;-59
2022/02/23 09:54:58;;;;;;;2.20;0.90;;;;;;;7.14;74.23;98494.34;5049566;28;20091;-58
2022/02/23 09:57:25;;;;;;;4.43;1.10;;;;;;;7.32;71.69;98495.66;5058436;28;20051;-59
2022/02/23 09:59:52;;;;;;;3.60;0.90;;;;;;;7.53;71.66;98496.53;5054479;28;20056;-59
2022/02/23 10:02:20;;;;;;;4.03;1.17;;;;;;;7.60;70.78;98502.78;5050414;28;20041;-59
2022/02/23 10:04:49;;;;;;;9.35;1.48;;;;;;;7.85;70.96;98498.66;5043585;28;20131;-59
2022/02/23 10:07:16;;;;;;;5.68;1.30;;;;;;;7.83;69.84;98498.84;5047510;28;20496;-59
2022/02/23 10:09:52;;;;;;;3.17;1.00;;;;;;;7.89;68.92;98495.31;5063659;28;20044;-58
2022/02/23 10:12:21;;;;;;;6.97;1.42;;;;;;;8.06;68.82;98493.06;5049841;28;20040;-55
2022/02/23 10:14:47;;;;;;;3.63;1.20;;;;;;;8.25;69.94;98487.84;5063597;28;20052;-59
2022/02/23 10:17:14;;;;;;;8.38;1.30;;;;;;;8.40;68.85;98503.00;5044322;28;20048;-59
2022/02/23 10:19:50;;;;;;;4.25;1.15;;;;;;;8.35;68.39;98495.50;5055818;28;20139;-58
2022/02/23 10:22:22;;;;;;;3.80;1.00;;;;;;;8.24;69.53;98499.69;5036463;28;20036;-59
2022/02/23 10:24:56;;;;;;;4.85;1.10;;;;;;;8.47;68.44;98487.59;5050433;28;20049;-59
2022/02/23 10:27:24;;;;;;;4.38;1.55;;;;;;;8.57;67.83;98489.91;5055447;28;20044;-58
2022/02/23 10:29:54;;;;;;;4.35;1.00;;;;;;;8.13;65.93;98495.75;5064589;28;20052;-58
2022/02/23 10:32:25;;;;;;;7.72;1.35;;;;;;;8.13;67.40;98489.50;5047462;28;20424;-58
2022/02/23 10:34:58;;;;;;;5.73;1.00;;;;;;;8.33;68.89;98489.47;5061602;28;20055;-58
2022/02/23 10:37:27;;;;;;;5.15;1.40;;;;;;;7.90;66.59;98490.75;5054957;28;20279;-58
2022/02/23 10:39:57;;;;;;;4.47;1.05;;;;;;;7.85;67.11;98488.69;5060302;28;20059;-58
2022/02/23 10:42:33;;;;;;;6.45;1.38;;;;;;;8.28;67.26;98482.03;5055951;28;20045;-59
2022/02/23 10:45:01;;;;;;;1.55;0.75;;;;;;;8.61;64.10;98488.44;5059993;28;20239;-58
2022/02/23 10:47:39;;;;;;;7.60;1.10;;;;;;;8.96;67.00;98482.72;5059581;28;20033;-58
2022/02/23 10:50:14;;;;;;;3.25;1.02;;;;;;;8.94;63.85;98479.41;5054827;28;20052;-58
2022/02/23 10:52:43;;;;;;;5.22;0.90;;;;;;;8.56;63.46;98482.84;5063839;28;20049;-58
2022/02/23 10:55:14;;;;;;;8.80;1.50;;;;;;;8.83;63.50;98470.09;5056998;28;20060;-57
2022/02/23 10:57:56;;;;;;;4.22;1.30;;;;;;;8.81;63.53;98480.28;5061733;28;20056;-54
2022/02/23 11:00:26;;;;;;;7.47;1.00;;;;;;;8.91;61.27;98473.59;5052067;28;20041;-55
2022/02/23 11:02:54;;;;;;;5.18;1.40;;;;;;;9.09;62.06;98471.03;5048513;28;20126;-58
2022/02/23 11:05:26;;;;;;;5.30;1.30;;;;;;;9.30;62.42;98468.22;5052361;28;20060;-57
2022/02/23 11:07:55;;;;;;;5.88;1.25;;;;;;;9.58;61.78;98458.91;5054030;28;20143;-57
2022/02/23 11:10:25;;;;;;;4.30;0.73;;;;;;;9.49;60.20;98461.03;5050766;28;20761;-56
2022/02/23 11:12:53;;;;;;;3.28;0.70;;;;;;;9.28;59.30;98465.72;5053244;28;20288;-58
2022/02/23 11:15:22;;;;;;;8.40;3.15;;;;;;;9.20;63.71;98465.97;5062174;28;20041;-58
2022/02/23 11:17:50;;;;;;;7.13;1.67;;;;;;;9.35;61.22;98461.13;5065485;28;20044;-59
2022/02/23 11:20:21;;;;;;;5.55;1.00;;;;;;;9.15;61.34;98458.53;5065522;28;20041;-58
2022/02/23 11:22:58;;;;;;;3.88;1.00;;;;;;;8.88;62.41;98458.63;5046421;28;20059;-57
2022/02/23 11:25:28;;;;;;;4.03;1.55;;;;;;;8.43;63.14;98444.00;5050953;28;20047;-56
2022/02/23 11:28:21;;;;;;;3.85;1.20;;;;;;;8.19;65.44;98440.94;5040041;28;20045;-55
2022/02/23 11:30:56;;;;;;;9.07;1.48;;;;;;;8.02;65.47;98442.41;5030394;28;20064;-58
2022/02/23 11:33:47;;;;;;;5.30;1.75;;;;;;;8.11;66.29;98453.84;5052539;28;20036;-58
2022/02/23 11:36:24;;;;;;;4.80;1.38;;;;;;;8.15;65.48;98455.06;5064984;28;20055;-58
2022/02/23 11:38:53;;;;;;;12.82;2.72;;;;;;;7.94;64.84;98449.69;5065491;28;20558;-57
2022/02/23 11:41:24;;;;;;;6.38;1.45;;;;;;;7.97;65.26;98442.22;5063580;28;20048;-58
2022/02/23 11:44:19;;;;;;;5.43;1.20;;;;;;;8.30;64.01;98439.47;5055451;28;20564;-58
2022/02/23 11:46:52;;;;;;;2.55;1.00;;;;;;;8.57;63.75;98422.41;5033941;28;20772;-55
2022/02/23 11:52:45;;;;;;;5.47;1.48;;;;;;;8.95;62.89;98429.72;5056201;28;20165;-58
2022/02/23 11:55:30;;;;;;;6.32;1.65;;;;;;;9.33;63.51;98421.84;5056938;28;20045;-58